createdAt,value
2017-05-30T00:00:14.306Z,0
2017-05-30T00:10:14.370Z,0
2017-05-30T00:20:14.350Z,0
2017-05-30T00:30:14.391Z,0
2017-05-30T00:40:14.367Z,0
2017-05-30T00:50:14.637Z,0
2017-05-30T01:00:14.358Z,0
2017-05-30T01:10:14.335Z,0
2017-05-30T01:20:14.394Z,0
2017-05-30T01:30:14.351Z,0
2017-05-30T01:40:14.322Z,0
2017-05-30T01:50:14.645Z,0
2017-05-30T02:00:14.345Z,0
2017-05-30T02:10:14.406Z,0
2017-05-30T02:20:14.393Z,0
2017-05-30T02:30:14.312Z,0
2017-05-30T02:40:14.384Z,4
2017-05-30T02:50:14.347Z,4
2017-05-30T03:00:14.390Z,20
2017-05-30T03:10:14.374Z,60
2017-05-30T03:20:14.354Z,160
2017-05-30T03:30:14.408Z,240
2017-05-30T03:40:14.360Z,396
2017-05-30T03:50:14.425Z,492
2017-05-30T04:00:14.364Z,564
2017-05-30T04:10:14.329Z,760
2017-05-30T04:20:14.394Z,676
2017-05-30T04:30:14.370Z,1252
2017-05-30T04:40:14.328Z,4296
2017-05-30T04:50:14.415Z,2940
2017-05-30T05:00:14.323Z,4188
2017-05-30T05:10:14.423Z,7660
2017-05-30T05:20:14.364Z,11544
2017-05-30T05:30:14.420Z,11884
2017-05-30T05:40:14.397Z,13848
2017-05-30T05:50:14.349Z,16660
2017-05-30T06:00:14.403Z,17292
2017-05-30T06:10:14.366Z,32256
2017-05-30T06:20:14.438Z,32736
2017-05-30T06:30:14.407Z,35808
2017-05-30T06:40:14.344Z,38496
2017-05-30T06:50:14.443Z,11708
2017-05-30T07:00:14.381Z,10612
2017-05-30T07:10:14.347Z,15012
2017-05-30T07:20:14.351Z,47232
2017-05-30T07:30:14.398Z,48768
2017-05-30T07:40:14.551Z,48416
2017-05-30T07:50:14.532Z,50240
2017-05-30T08:00:14.470Z,65920
2017-05-30T08:10:14.440Z,68096
2017-05-30T08:20:14.411Z,71616
2017-05-30T08:30:14.587Z,86208
2017-05-30T08:40:14.567Z,56704
2017-05-30T08:50:14.441Z,94848
2017-05-30T09:00:14.434Z,19168
2017-05-30T09:10:14.504Z,18316
2017-05-30T09:20:14.442Z,23008
2017-05-30T09:30:14.413Z,24928
2017-05-30T09:40:14.585Z,18704
2017-05-30T09:50:14.465Z,16704
2017-05-30T10:00:14.478Z,15308
2017-05-30T10:10:14.453Z,13488
2017-05-30T10:20:14.429Z,15080
2017-05-30T10:30:14.509Z,16608
2017-05-30T10:40:14.459Z,12408
2017-05-30T10:50:14.536Z,11280
2017-05-30T11:00:14.449Z,9300
2017-05-30T11:10:14.395Z,15496
2017-05-30T11:20:14.488Z,12564
2017-05-30T11:30:14.443Z,11388
2017-05-30T11:40:14.528Z,9816
2017-05-30T11:50:14.484Z,20192
2017-05-30T12:00:14.456Z,5596
2017-05-30T12:10:14.498Z,4768
2017-05-30T12:20:14.504Z,12280
2017-05-30T12:30:14.530Z,14624
2017-05-30T12:40:14.477Z,15244
2017-05-30T12:50:14.690Z,14440
2017-05-30T13:00:14.538Z,6252
2017-05-30T13:10:14.487Z,5732
2017-05-30T13:20:14.545Z,11104
2017-05-30T13:30:14.497Z,13540
2017-05-30T13:40:14.724Z,14484
2017-05-30T13:50:14.608Z,7628
2017-05-30T14:00:15.496Z,10952
2017-05-30T14:10:14.552Z,13796
2017-05-30T14:20:14.507Z,13192
2017-05-30T14:30:14.486Z,8884
2017-05-30T14:40:14.589Z,3772
2017-05-30T14:50:14.538Z,12700
2017-05-30T15:00:14.550Z,8312
2017-05-30T15:10:14.647Z,11188
2017-05-30T15:20:14.654Z,5776
2017-05-30T15:30:14.627Z,9316
2017-05-30T15:40:14.515Z,6480
2017-05-30T15:50:15.589Z,5800
2017-05-30T16:00:14.564Z,5200
2017-05-30T16:10:14.474Z,8352
2017-05-30T16:20:14.553Z,4736
2017-05-30T16:30:14.489Z,4704
2017-05-30T16:40:15.557Z,5492
2017-05-30T16:50:14.515Z,8676
2017-05-30T17:00:14.544Z,5112
2017-05-30T17:10:15.522Z,2832
2017-05-30T17:20:14.524Z,4612
2017-05-30T17:30:14.501Z,5924
2017-05-30T17:40:14.529Z,4872
2017-05-30T17:50:14.564Z,4504
2017-05-30T18:00:14.589Z,2704
2017-05-30T18:10:14.579Z,2564
2017-05-30T18:20:14.695Z,2692
2017-05-30T18:30:14.669Z,1952
2017-05-30T18:40:16.643Z,772
2017-05-30T18:50:14.727Z,868
2017-05-30T19:00:15.608Z,708
2017-05-30T19:10:15.636Z,412
2017-05-30T19:20:14.627Z,396
2017-05-30T19:30:14.615Z,216
2017-05-30T19:40:14.615Z,128
2017-05-30T19:50:14.657Z,64
2017-05-30T20:00:14.551Z,24
2017-05-30T20:10:14.653Z,8
2017-05-30T20:20:14.605Z,4
2017-05-30T20:30:14.721Z,4
2017-05-30T20:40:14.585Z,4
2017-05-30T20:50:14.539Z,0
2017-05-30T21:00:14.607Z,4
2017-05-30T21:10:14.635Z,0
2017-05-30T21:20:14.743Z,0
2017-05-30T21:30:14.633Z,0
2017-05-30T21:40:14.676Z,0
2017-05-30T21:50:14.618Z,0
2017-05-30T22:00:14.710Z,0
2017-05-30T22:10:15.183Z,0
2017-05-30T22:20:19.094Z,0
2017-05-30T22:30:14.673Z,0
2017-05-30T22:40:16.682Z,0
2017-05-30T22:50:14.579Z,0
2017-05-30T23:00:14.524Z,0
2017-05-30T23:10:14.610Z,0
2017-05-30T23:20:14.705Z,0
2017-05-30T23:30:16.655Z,0
2017-05-30T23:40:14.736Z,0
2017-05-30T23:50:20.413Z,4
